Time,TemperatureF,DewpointF,PressureIn,WindDirection,WindDirectionDegrees,WindSpeedMPH,WindSpeedGustMPH,Humidity,HourlyPrecipIn,Conditions,Clouds,dailyrainin,SoftwareType,DateUTC
2013-05-22 00:00:00,63.2,60.0,29.84,South,175,1.0,4.0,88,0.00,,,0.00,weatherlink.com 1.10,2013-05-22 07:00:00,
2013-05-22 00:15:00,63.2,60.0,29.84,South,171,0.0,5.0,88,0.00,,,0.00,weatherlink.com 1.10,2013-05-22 07:15:00,
2013-05-22 00:30:00,63.4,60.0,29.83,South,171,0.0,3.0,88,0.00,,,0.00,weatherlink.com 1.10,2013-05-22 07:30:00,
2013-05-22 00:45:00,63.5,60.0,29.83,SSE,165,1.0,3.0,88,0.00,,,0.00,weatherlink.com 1.10,2013-05-22 07:45:00,
2013-05-22 01:00:00,63.4,59.0,29.82,ESE,105,0.0,4.0,86,0.00,,,0.00,weatherlink.com 1.10,2013-05-22 08:00:00,
2013-05-22 01:15:00,63.5,59.0,29.82,SE,130,0.0,2.0,86,0.00,,,0.00,weatherlink.com 1.10,2013-05-22 08:15:00,
2013-05-22 01:30:00,63.5,59.0,29.82,SSE,153,0.0,3.0,85,0.00,,,0.00,weatherlink.com 1.10,2013-05-22 08:30:00,
2013-05-22 01:45:00,63.4,59.0,29.82,South,177,0.0,3.0,84,0.00,,,0.00,weatherlink.com 1.10,2013-05-22 08:45:00,
2013-05-22 02:00:00,63.4,58.0,29.81,SSE,167,2.0,3.0,83,0.00,,,0.00,weatherlink.com 1.10,2013-05-22 09:00:00,
2013-05-22 02:15:00,63.5,58.0,29.80,SSW,198,1.0,3.0,82,0.00,,,0.00,weatherlink.com 1.10,2013-05-22 09:15:00,
2013-05-22 02:30:00,63.5,58.0,29.80,South,178,0.0,2.0,82,0.00,,,0.00,weatherlink.com 1.10,2013-05-22 09:30:00,
2013-05-22 02:45:00,63.6,58.0,29.80,ESE,119,3.0,4.0,82,0.00,,,0.00,weatherlink.com 1.10,2013-05-22 09:45:00,
2013-05-22 03:00:00,63.6,58.0,29.79,ESE,117,0.0,2.0,82,0.00,,,0.00,weatherlink.com 1.10,2013-05-22 10:00:00,
2013-05-22 03:15:00,63.6,58.0,29.79,SSE,166,0.0,2.0,82,0.00,,,0.00,weatherlink.com 1.10,2013-05-22 10:15:00,
2013-05-22 03:30:00,63.6,58.0,29.79,East,99,1.0,3.0,82,0.00,,,0.00,weatherlink.com 1.10,2013-05-22 10:30:00,
2013-05-22 03:45:00,63.6,58.0,29.79,SE,144,1.0,4.0,81,0.00,,,0.00,weatherlink.com 1.10,2013-05-22 10:45:00,
2013-05-22 04:00:00,63.6,58.0,29.78,SE,125,0.0,5.0,81,0.00,,,0.00,weatherlink.com 1.10,2013-05-22 11:00:00,
2013-05-22 04:15:00,63.6,58.0,29.79,SE,128,0.0,3.0,81,0.00,,,0.00,weatherlink.com 1.10,2013-05-22 11:15:00,
2013-05-22 04:30:00,63.6,58.0,29.78,East,80,2.0,5.0,81,0.00,,,0.00,weatherlink.com 1.10,2013-05-22 11:30:00,
2013-05-22 04:45:00,63.6,58.0,29.78,SE,144,1.0,5.0,81,0.00,,,0.00,weatherlink.com 1.10,2013-05-22 11:45:00,
2013-05-22 05:00:00,63.6,58.0,29.78,East,90,0.0,4.0,81,0.00,,,0.00,weatherlink.com 1.10,2013-05-22 12:00:00,
2013-05-22 05:15:00,63.6,58.0,29.78,SE,141,0.0,4.0,82,0.00,,,0.00,weatherlink.com 1.10,2013-05-22 12:15:00,
2013-05-22 05:30:00,63.6,58.0,29.78,SSW,192,1.0,5.0,81,0.00,,,0.00,weatherlink.com 1.10,2013-05-22 12:30:00,
2013-05-22 05:45:00,63.5,58.0,29.79,ESE,103,3.0,5.0,82,0.00,,,0.00,weatherlink.com 1.10,2013-05-22 12:45:00,
2013-05-22 06:00:00,63.4,58.0,29.79,East,94,2.0,2.0,81,0.00,,,0.00,weatherlink.com 1.10,2013-05-22 13:00:00,
2013-05-22 06:15:00,63.5,58.0,29.79,SE,128,2.0,4.0,82,0.00,,,0.00,weatherlink.com 1.10,2013-05-22 13:15:00,
2013-05-22 06:30:00,63.4,58.0,29.80,ESE,111,0.0,3.0,81,0.00,,,0.00,weatherlink.com 1.10,2013-05-22 13:30:00,
2013-05-22 06:45:00,63.4,58.0,29.80,ESE,117,0.0,5.0,81,0.00,,,0.00,weatherlink.com 1.10,2013-05-22 13:45:00,
2013-05-22 07:00:00,63.5,57.0,29.80,ENE,71,2.0,5.0,80,0.00,,,0.00,weatherlink.com 1.10,2013-05-22 14:00:00,
2013-05-22 07:15:00,63.7,57.0,29.80,South,186,0.0,5.0,80,0.00,,,0.00,weatherlink.com 1.10,2013-05-22 14:15:00,
2013-05-22 07:30:00,63.9,58.0,29.81,East,101,1.0,5.0,80,0.00,,,0.00,weatherlink.com 1.10,2013-05-22 14:30:00,
2013-05-22 07:45:00,64.1,57.0,29.81,ENE,74,2.0,7.0,78,0.00,,,0.00,weatherlink.com 1.10,2013-05-22 14:45:00,
2013-05-22 08:00:00,64.5,57.0,29.81,ESE,104,2.0,7.0,77,0.00,,,0.00,weatherlink.com 1.10,2013-05-22 15:00:00,
2013-05-22 08:15:00,64.9,58.0,29.81,ESE,111,0.0,4.0,77,0.00,,,0.00,weatherlink.com 1.10,2013-05-22 15:15:00,
2013-05-22 08:30:00,65.2,57.0,29.82,East,95,2.0,7.0,76,0.00,,,0.00,weatherlink.com 1.10,2013-05-22 15:30:00,
2013-05-22 08:45:00,65.3,58.0,29.82,ESE,119,0.0,3.0,76,0.00,,,0.00,weatherlink.com 1.10,2013-05-22 15:45:00,
2013-05-22 09:00:00,65.6,58.0,29.82,ESE,114,0.0,4.0,75,0.00,,,0.00,weatherlink.com 1.10,2013-05-22 16:00:00,
2013-05-22 09:15:00,65.8,58.0,29.82,SSE,160,0.0,4.0,75,0.00,,,0.00,weatherlink.com 1.10,2013-05-22 16:15:00,
2013-05-22 09:30:00,66.0,60.0,29.82,South,190,0.0,5.0,80,0.00,,,0.00,weatherlink.com 1.10,2013-05-22 16:30:00,
2013-05-22 09:45:00,66.1,59.0,29.82,SW,230,1.0,5.0,79,0.00,,,0.00,weatherlink.com 1.10,2013-05-22 16:45:00,
2013-05-22 10:00:00,66.1,59.0,29.82,South,187,1.0,6.0,79,0.00,,,0.00,weatherlink.com 1.10,2013-05-22 17:00:00,
2013-05-22 10:15:00,66.7,60.0,29.82,South,169,4.0,8.0,78,0.00,,,0.00,weatherlink.com 1.10,2013-05-22 17:15:00,
2013-05-22 10:30:00,68.8,61.0,29.82,SSW,210,3.0,9.0,75,0.00,,,0.00,weatherlink.com 1.10,2013-05-22 17:30:00,
2013-05-22 10:45:00,70.1,60.0,29.82,SSE,153,4.0,8.0,71,0.00,,,0.00,weatherlink.com 1.10,2013-05-22 17:45:00,
2013-05-22 11:00:00,71.0,61.1,29.82,South,180,3.0,8.0,71,0.00,,---,0.00,VWS V14.01,2013-05-22 18:00:00,
2013-05-22 11:01:00,71.3,61.0,29.82,South,169,5.0,7.0,70,0.00,,,0.00,weatherlink.com 1.10,2013-05-22 18:01:00,
2013-05-22 11:15:00,71.7,60.6,29.82,South,180,4.0,9.0,68,0.00,,---,0.00,VWS V14.01,2013-05-22 18:15:00,
2013-05-22 11:16:00,71.9,62.0,29.82,South,190,5.0,8.0,70,0.00,,,0.00,weatherlink.com 1.10,2013-05-22 18:16:00,
2013-05-22 11:30:00,71.7,61.0,29.82,SSW,202,4.0,11.0,69,0.00,,---,0.00,VWS V14.01,2013-05-22 18:30:00,
2013-05-22 11:31:00,71.7,61.0,29.82,SSW,203,4.0,10.0,68,0.00,,,0.00,weatherlink.com 1.10,2013-05-22 18:31:00,
2013-05-22 11:45:00,71.8,60.7,29.82,South,180,4.0,9.0,68,0.00,,---,0.00,VWS V14.01,2013-05-22 18:45:00,
2013-05-22 11:46:00,72.0,60.0,29.82,SE,129,1.0,8.0,67,0.00,,,0.00,weatherlink.com 1.10,2013-05-22 18:46:00,
2013-05-22 12:00:00,73.0,60.1,29.82,South,180,3.0,9.0,64,0.00,,---,0.00,VWS V14.01,2013-05-22 19:00:00,
2013-05-22 12:01:00,73.2,61.0,29.82,SSW,208,1.0,8.0,65,0.00,,,0.00,weatherlink.com 1.10,2013-05-22 19:01:00,
2013-05-22 12:15:00,72.3,60.7,29.81,South,180,3.0,11.0,67,0.00,,---,0.00,VWS V14.01,2013-05-22 19:15:00,
2013-05-22 12:16:00,72.4,60.0,29.81,South,179,2.0,10.0,65,0.00,,,0.00,weatherlink.com 1.10,2013-05-22 19:16:00,
2013-05-22 12:30:00,73.1,61.1,29.81,South,180,3.0,12.0,66,0.00,,---,0.00,VWS V14.01,2013-05-22 19:30:00,
2013-05-22 12:31:00,73.4,61.0,29.81,SSE,154,6.0,12.0,65,0.00,,,0.00,weatherlink.com 1.10,2013-05-22 19:31:00,
2013-05-22 12:45:00,73.7,60.8,29.81,South,180,3.0,9.0,64,0.00,,---,0.00,VWS V14.01,2013-05-22 19:45:00,
2013-05-22 12:46:00,73.8,60.0,29.80,SSW,209,6.0,8.0,63,0.00,,,0.00,weatherlink.com 1.10,2013-05-22 19:46:00,
2013-05-22 13:00:00,73.8,60.4,29.81,SSW,202,4.0,13.0,63,0.00,,---,0.00,VWS V14.01,2013-05-22 20:00:00,
2013-05-22 13:01:00,73.7,61.0,29.80,SSW,200,5.0,13.0,64,0.00,,,0.00,weatherlink.com 1.10,2013-05-22 20:01:00,
2013-05-22 13:15:00,73.8,60.4,29.80,SSW,202,3.0,11.0,63,0.00,,---,0.00,VWS V14.01,2013-05-22 20:15:00,
2013-05-22 13:16:00,73.8,60.0,29.80,SSW,205,3.0,11.0,63,0.00,,,0.00,weatherlink.com 1.10,2013-05-22 20:16:00,
2013-05-22 13:30:00,73.7,60.3,29.80,South,180,3.0,9.0,63,0.00,,---,0.00,VWS V14.01,2013-05-22 20:30:00,
2013-05-22 13:31:00,73.7,60.0,29.80,SSW,203,7.0,9.0,63,0.00,,,0.00,weatherlink.com 1.10,2013-05-22 20:31:00,
2013-05-22 13:45:00,73.8,60.4,29.80,SSW,202,3.0,11.0,63,0.00,,---,0.00,VWS V14.01,2013-05-22 20:45:00,
2013-05-22 13:46:00,73.8,60.0,29.80,SSE,154,1.0,11.0,62,0.00,,,0.00,weatherlink.com 1.10,2013-05-22 20:46:00,
2013-05-22 14:00:00,73.7,60.3,29.80,SSW,202,4.0,10.0,63,0.00,,---,0.00,VWS V14.01,2013-05-22 21:00:00,
2013-05-22 14:01:00,73.7,60.0,29.80,SSW,194,9.0,9.0,62,0.00,,,0.00,weatherlink.com 1.10,2013-05-22 21:01:00,
2013-05-22 14:15:00,74.0,60.2,29.80,SSW,202,4.0,10.0,62,0.00,,---,0.00,VWS V14.01,2013-05-22 21:15:00,
2013-05-22 14:16:00,73.9,60.0,29.79,South,190,4.0,9.0,62,0.00,,,0.00,weatherlink.com 1.10,2013-05-22 21:16:00,
2013-05-22 14:30:00,73.8,60.0,29.79,SSW,202,4.0,11.0,62,0.00,,---,0.00,VWS V14.01,2013-05-22 21:30:00,
2013-05-22 14:31:00,73.9,60.0,29.79,South,184,2.0,11.0,62,0.00,,,0.00,weatherlink.com 1.10,2013-05-22 21:31:00,
2013-05-22 14:45:00,73.5,60.2,29.79,SSW,202,4.0,12.0,63,0.00,,---,0.00,VWS V14.01,2013-05-22 21:45:00,
2013-05-22 14:46:00,73.5,60.0,29.79,SSW,208,5.0,12.0,63,0.00,,,0.00,weatherlink.com 1.10,2013-05-22 21:46:00,
2013-05-22 15:00:00,74.0,60.6,29.78,South,180,4.0,12.0,63,0.00,,---,0.00,VWS V14.01,2013-05-22 22:00:00,
2013-05-22 15:01:00,74.1,61.0,29.78,SSW,212,6.0,9.0,63,0.00,,,0.00,weatherlink.com 1.10,2013-05-22 22:01:00,
2013-05-22 15:15:00,73.8,60.4,29.78,SSW,202,5.0,11.0,63,0.00,,---,0.00,VWS V14.01,2013-05-22 22:15:00,
2013-05-22 15:16:00,73.8,60.0,29.78,South,182,8.0,10.0,63,0.00,,,0.00,weatherlink.com 1.10,2013-05-22 22:16:00,
2013-05-22 15:30:00,73.6,60.7,29.78,SSW,202,5.0,10.0,64,0.00,,---,0.00,VWS V14.01,2013-05-22 22:30:00,
2013-05-22 15:31:00,73.5,60.0,29.78,SSW,192,4.0,10.0,63,0.00,,,0.00,weatherlink.com 1.10,2013-05-22 22:31:00,
2013-05-22 15:45:00,73.2,60.3,29.78,SSW,202,5.0,11.0,64,0.00,,---,0.00,VWS V14.01,2013-05-22 22:45:00,
2013-05-22 15:46:00,73.2,60.0,29.78,WSW,242,2.0,10.0,63,0.00,,,0.00,weatherlink.com 1.10,2013-05-22 22:46:00,
2013-05-22 16:00:00,72.7,60.3,29.77,SSW,202,5.0,11.0,65,0.00,,---,0.00,VWS V14.01,2013-05-22 23:00:00,
2013-05-22 16:01:00,72.9,60.0,29.77,WSW,250,4.0,10.0,65,0.00,,,0.00,weatherlink.com 1.10,2013-05-22 23:01:00,
2013-05-22 16:15:00,73.0,61.4,29.77,SSW,202,4.0,11.0,67,0.00,,---,0.00,VWS V14.01,2013-05-22 23:15:00,
2013-05-22 16:16:00,72.6,61.0,29.77,SW,232,1.0,12.0,67,0.00,,,0.00,weatherlink.com 1.10,2013-05-22 23:16:00,
2013-05-22 16:30:00,71.9,60.8,29.77,SSW,202,4.0,12.0,68,0.00,,---,0.00,VWS V14.01,2013-05-22 23:30:00,
2013-05-22 16:31:00,71.9,60.0,29.77,West,265,0.0,8.0,67,0.00,,,0.00,weatherlink.com 1.10,2013-05-22 23:31:00,
2013-05-22 16:45:00,72.2,60.7,29.77,SSW,202,3.0,11.0,67,0.00,,---,0.00,VWS V14.01,2013-05-22 23:45:00,
2013-05-22 16:46:00,72.1,61.0,29.77,SW,231,1.0,8.0,67,0.00,,,0.00,weatherlink.com 1.10,2013-05-22 23:46:00,
2013-05-22 17:00:00,71.7,60.2,29.77,SSW,202,4.0,10.0,67,0.00,,---,0.00,VWS V14.01,2013-05-23 00:00:00,
2013-05-22 17:01:00,71.7,60.0,29.77,SSW,210,8.0,10.0,67,0.00,,,0.00,weatherlink.com 1.10,2013-05-23 00:01:00,
2013-05-22 17:15:00,71.3,60.2,29.77,SSW,202,4.0,11.0,68,0.00,,---,0.00,VWS V14.01,2013-05-23 00:15:00,
2013-05-22 17:16:00,71.3,60.0,29.77,South,184,10.0,12.0,68,0.00,,,0.00,weatherlink.com 1.10,2013-05-23 00:16:00,
2013-05-22 17:30:00,70.4,59.8,29.77,SSW,202,5.0,12.0,69,0.00,,---,0.00,VWS V14.01,2013-05-23 00:30:00,
2013-05-22 17:31:00,70.3,60.0,29.77,SSW,198,7.0,11.0,70,0.00,,,0.00,weatherlink.com 1.10,2013-05-23 00:31:00,
2013-05-22 17:45:00,69.8,59.2,29.76,SSW,202,4.0,11.0,69,0.00,,---,0.00,VWS V14.01,2013-05-23 00:45:00,
2013-05-22 17:46:00,69.7,60.0,29.76,WSW,240,2.0,10.0,70,0.00,,,0.00,weatherlink.com 1.10,2013-05-23 00:46:00,
2013-05-22 18:00:00,69.6,59.4,29.76,SSW,202,4.0,10.0,70,0.00,,---,0.00,VWS V14.01,2013-05-23 01:00:00,
2013-05-22 18:01:00,69.7,60.0,29.76,SW,219,7.0,10.0,70,0.00,,,0.00,weatherlink.com 1.10,2013-05-23 01:01:00,
2013-05-22 18:15:00,69.2,59.4,29.76,SSW,202,4.0,10.0,71,0.00,,---,0.00,VWS V14.01,2013-05-23 01:15:00,
2013-05-22 18:16:00,69.1,59.0,29.76,SW,229,2.0,10.0,71,0.00,,,0.00,weatherlink.com 1.10,2013-05-23 01:16:00,
2013-05-22 18:30:00,68.5,59.5,29.76,SSW,202,5.0,10.0,73,0.00,,---,0.00,VWS V14.01,2013-05-23 01:30:00,
2013-05-22 18:31:00,68.4,59.0,29.76,South,181,3.0,10.0,73,0.00,,,0.00,weatherlink.com 1.10,2013-05-23 01:31:00,
2013-05-22 18:45:00,67.9,59.3,29.77,SSW,202,5.0,12.0,74,0.00,,---,0.00,VWS V14.01,2013-05-23 01:45:00,
2013-05-22 18:46:00,67.7,59.0,29.77,SW,219,6.0,12.0,74,0.00,,,0.00,weatherlink.com 1.10,2013-05-23 01:46:00,
2013-05-22 19:00:00,66.9,58.7,29.77,SW,225,4.0,9.0,75,0.00,,---,0.00,VWS V14.01,2013-05-23 02:00:00,
2013-05-22 19:01:00,66.7,59.0,29.77,SW,234,4.0,9.0,75,0.00,,,0.00,weatherlink.com 1.10,2013-05-23 02:01:00,
2013-05-22 19:15:00,65.5,58.5,29.77,SSW,202,3.0,10.0,78,0.00,,---,0.00,VWS V14.01,2013-05-23 02:15:00,
2013-05-22 19:16:00,65.3,58.0,29.77,SW,215,4.0,10.0,78,0.00,,,0.00,weatherlink.com 1.10,2013-05-23 02:16:00,
2013-05-22 19:30:00,64.5,58.2,29.77,SW,225,3.0,9.0,80,0.00,,---,0.00,VWS V14.01,2013-05-23 02:30:00,
2013-05-22 19:31:00,64.3,58.0,29.77,SW,219,2.0,9.0,80,0.00,,,0.00,weatherlink.com 1.10,2013-05-23 02:31:00,
2013-05-22 19:45:00,63.8,57.5,29.77,SSW,202,3.0,9.0,80,0.00,,---,0.00,VWS V14.01,2013-05-23 02:45:00,
2013-05-22 19:46:00,63.7,57.0,29.77,SSW,198,1.0,9.0,80,0.00,,,0.00,weatherlink.com 1.10,2013-05-23 02:46:00,
2013-05-22 20:00:00,63.4,57.1,29.78,SSW,202,3.0,8.0,80,0.00,,---,0.00,VWS V14.01,2013-05-23 03:00:00,
2013-05-22 20:01:00,63.4,57.0,29.78,SSW,211,1.0,6.0,80,0.00,,,0.00,weatherlink.com 1.10,2013-05-23 03:01:00,
2013-05-22 20:15:00,63.4,57.1,29.78,SSW,202,2.0,7.0,80,0.00,,---,0.00,VWS V14.01,2013-05-23 03:15:00,
2013-05-22 20:16:00,63.5,57.0,29.79,South,188,3.0,7.0,80,0.00,,,0.00,weatherlink.com 1.10,2013-05-23 03:16:00,
2013-05-22 20:30:00,63.7,57.8,29.79,SSW,202,2.0,8.0,81,0.00,,---,0.00,VWS V14.01,2013-05-23 03:30:00,
2013-05-22 20:31:00,63.7,58.0,29.79,SSW,201,2.0,8.0,81,0.00,,,0.00,weatherlink.com 1.10,2013-05-23 03:31:00,
2013-05-22 20:45:00,63.7,57.8,29.79,SSW,202,2.0,7.0,81,0.00,,---,0.00,VWS V14.01,2013-05-23 03:45:00,
2013-05-22 20:46:00,63.7,58.0,29.79,SW,221,1.0,7.0,81,0.00,,,0.00,weatherlink.com 1.10,2013-05-23 03:46:00,
2013-05-22 21:00:00,63.5,57.6,29.79,SSW,202,3.0,8.0,81,0.00,,---,0.00,VWS V14.01,2013-05-23 04:00:00,
2013-05-22 21:01:00,63.4,57.0,29.79,South,185,3.0,7.0,80,0.00,,,0.00,weatherlink.com 1.10,2013-05-23 04:01:00,
2013-05-22 21:15:00,63.1,57.2,29.80,South,180,3.0,7.0,81,0.00,,---,0.00,VWS V14.01,2013-05-23 04:15:00,
2013-05-22 21:30:00,63.0,57.1,29.81,SSW,202,2.0,7.0,81,0.00,,---,0.00,VWS V14.01,2013-05-23 04:30:00,
2013-05-22 21:45:00,63.0,57.1,29.81,SSW,202,2.0,5.0,81,0.00,,---,0.00,VWS V14.01,2013-05-23 04:45:00,
2013-05-22 22:00:00,63.0,57.1,29.81,SSW,202,2.0,6.0,81,0.00,,---,0.00,VWS V14.01,2013-05-23 05:00:00,
2013-05-22 22:14:00,63.0,57.0,29.81,SSW,197,3.0,4.0,81,0.00,,,0.00,weatherlink.com 1.10,2013-05-23 05:14:00,
2013-05-22 22:15:00,63.0,57.1,29.81,SSW,202,1.0,4.0,81,0.00,,---,0.00,VWS V14.01,2013-05-23 05:15:00,
2013-05-22 22:17:00,62.9,57.0,29.82,SW,219,1.0,4.0,80,0.00,,,0.00,weatherlink.com 1.10,2013-05-23 05:17:00,
2013-05-22 22:30:00,62.9,56.6,29.82,SSW,202,1.0,5.0,80,0.00,,---,0.00,VWS V14.01,2013-05-23 05:30:00,
2013-05-22 22:32:00,62.9,56.0,29.81,WSW,240,0.0,5.0,79,0.00,,,0.00,weatherlink.com 1.10,2013-05-23 05:32:00,
2013-05-22 22:47:00,62.7,56.0,29.81,SW,219,3.0,4.0,79,0.00,,,0.00,weatherlink.com 1.10,2013-05-23 05:47:00,
2013-05-22 23:00:00,62.5,55.9,29.81,SW,225,1.0,4.0,79,0.00,,---,0.00,VWS V14.01,2013-05-23 06:00:00,
2013-05-22 23:02:00,62.4,56.0,29.81,WSW,250,1.0,4.0,79,0.00,,,0.00,weatherlink.com 1.10,2013-05-23 06:02:00,
2013-05-22 23:15:00,62.1,55.9,29.81,WSW,248,0.0,4.0,80,0.00,,---,0.00,VWS V14.01,2013-05-23 06:15:00,
2013-05-22 23:17:00,62.0,56.0,29.81,WSW,250,0.0,2.0,80,0.00,,,0.00,weatherlink.com 1.10,2013-05-23 06:17:00,
2013-05-22 23:30:00,61.6,55.7,29.81,WSW,248,0.0,2.0,81,0.00,,---,0.00,VWS V14.01,2013-05-23 06:30:00,
2013-05-22 23:32:00,61.6,56.0,29.81,WSW,250,0.0,1.0,82,0.00,,,0.00,weatherlink.com 1.10,2013-05-23 06:32:00,
2013-05-22 23:45:00,61.8,56.2,29.81,WSW,248,0.0,2.0,82,0.00,,---,0.00,VWS V14.01,2013-05-23 06:45:00,
2013-05-22 23:47:00,61.8,56.0,29.81,WSW,250,0.0,1.0,82,0.00,,,0.00,weatherlink.com 1.10,2013-05-23 06:47:00,